City Of Vicksburg — WDC2660 — position and weather

sailwx.info

Track history (hours):
 
Tides and Currents Weather Stations Pressure Air Temp Water Temp Dewpoint Dewpoint Depression Visibility Wind Speed Wind Dir Waves Ship Positions

City Of Vicksburg

Owner: Kirby Inland Marine LP, Houston, TX. More information available from US FCC via Universal Licensing System and Coast Guard Vessel Documentation Center.

Last reported at 2018-Feb-15 21:38 UTC. Time now 2018-Feb-20 19:33 UTC.
Position N 32°38' W 091°09'.

Length 319 m; draft 3 m.

Type: . MMSI: 366996120.

Date/timePositionNaut miles runAvg speedWind from/ knotsBaromVisibWave heightAir tempDewpointWater temp
2018-Feb-15 21:38N 32°38' W 091°09'0 0.2
2018-Feb-15 21:29N 32°38' W 091°09'0 0.0
2018-Feb-15 21:00N 32°38' W 091°09'0 0.0
2018-Feb-15 20:30N 32°38' W 091°09'1 2.8
2018-Feb-15 19:57N 32°37' W 091°09'2 4.8
2018-Feb-15 19:30N 32°35' W 091°07'3 5.1
2018-Feb-15 19:00N 32°33' W 091°06'3 5.6
2018-Feb-15 18:30N 32°30' W 091°07'3 5.6
2018-Feb-15 18:00N 32°28' W 091°06'3 5.7
2018-Feb-15 17:30N 32°26' W 091°03'3 5.5
2018-Feb-15 17:00N 32°25' W 090°60'3 5.2
2018-Feb-15 16:30N 32°22' W 091°00'2 4.5
2018-Feb-15 16:00N 32°21' W 090°58'3 5.7
2018-Feb-15 15:30N 32°21' W 090°55'2 4.2
2018-Feb-15 15:00N 32°18' W 090°55'2 4.9
2018-Feb-15 14:30N 32°17' W 090°57'3 5.4
2018-Feb-15 14:00N 32°15' W 090°59'2 3.5
2018-Feb-15 13:30N 32°13' W 090°59'3 5.2
2018-Feb-15 13:00N 32°11' W 090°60'3 5.2
2018-Feb-15 12:30N 32°08' W 091°00'2 4.3
2018-Feb-15 12:00N 32°07' W 091°03'2 4.7
2018-Feb-15 11:30N 32°08' W 091°06'2 3.7
2018-Feb-15 10:58N 32°06' W 091°06'3 5.3
2018-Feb-15 10:20N 32°03' W 091°03'2 4.6
2018-Feb-15 10:00N 32°02' W 091°04'7 5.0
2018-Feb-15 08:39N 31°59' W 091°11'1 5.1
2018-Feb-15 08:30N 31°58' W 091°11'4 5.0
2018-Feb-15 07:45N 31°54' W 091°12'1 5.0
2018-Feb-15 07:28N 31°53' W 091°13'3 4.9
2018-Feb-15 06:54N 31°51' W 091°16'3 5.1
2018-Feb-15 06:25N 31°51' W 091°19'2 4.5
2018-Feb-15 05:58N 31°50' W 091°21'3 4.8
2018-Feb-15 05:25N 31°48' W 091°21'3 5.5
2018-Feb-15 04:58N 31°45' W 091°22'  
Track history (hours):
 
Tides and Currents Weather Stations Pressure Air Temp Water Temp Dewpoint Dewpoint Depression Visibility Wind Speed Wind Dir Waves Ship Positions

City Of Vicksburg

Owner: Kirby Inland Marine LP, Houston, TX. More information available from US FCC via Universal Licensing System and Coast Guard Vessel Documentation Center.

Last reported at 2018-Feb-15 21:38 UTC. Time now 2018-Feb-20 19:33 UTC.
Position N 32°38' W 091°09'.

Length 319 m; draft 3 m.

Type: . MMSI: 366996120.

Date/timePositionNaut miles runAvg speedWind from/ knotsBaromVisibWave heightAir tempDewpointWater temp
2018-Feb-15 21:38N 32°38' W 091°09'0 0.2
2018-Feb-15 21:29N 32°38' W 091°09'0 0.0
2018-Feb-15 21:00N 32°38' W 091°09'0 0.0
2018-Feb-15 20:30N 32°38' W 091°09'1 2.8
2018-Feb-15 19:57N 32°37' W 091°09'2 4.8
2018-Feb-15 19:30N 32°35' W 091°07'3 5.1
2018-Feb-15 19:00N 32°33' W 091°06'3 5.6
2018-Feb-15 18:30N 32°30' W 091°07'3 5.6
2018-Feb-15 18:00N 32°28' W 091°06'3 5.7
2018-Feb-15 17:30N 32°26' W 091°03'3 5.5
2018-Feb-15 17:00N 32°25' W 090°60'3 5.2
2018-Feb-15 16:30N 32°22' W 091°00'2 4.5
2018-Feb-15 16:00N 32°21' W 090°58'3 5.7
2018-Feb-15 15:30N 32°21' W 090°55'2 4.2
2018-Feb-15 15:00N 32°18' W 090°55'2 4.9
2018-Feb-15 14:30N 32°17' W 090°57'3 5.4
2018-Feb-15 14:00N 32°15' W 090°59'2 3.5
2018-Feb-15 13:30N 32°13' W 090°59'3 5.2
2018-Feb-15 13:00N 32°11' W 090°60'3 5.2
2018-Feb-15 12:30N 32°08' W 091°00'2 4.3
2018-Feb-15 12:00N 32°07' W 091°03'2 4.7
2018-Feb-15 11:30N 32°08' W 091°06'2 3.7
2018-Feb-15 10:58N 32°06' W 091°06'3 5.3
2018-Feb-15 10:20N 32°03' W 091°03'2 4.6
2018-Feb-15 10:00N 32°02' W 091°04'7 5.0
2018-Feb-15 08:39N 31°59' W 091°11'1 5.1
2018-Feb-15 08:30N 31°58' W 091°11'4 5.0
2018-Feb-15 07:45N 31°54' W 091°12'1 5.0
2018-Feb-15 07:28N 31°53' W 091°13'3 4.9
2018-Feb-15 06:54N 31°51' W 091°16'3 5.1
2018-Feb-15 06:25N 31°51' W 091°19'2 4.5
2018-Feb-15 05:58N 31°50' W 091°21'3 4.8
2018-Feb-15 05:25N 31°48' W 091°21'3 5.5
2018-Feb-15 04:58N 31°45' W 091°22'  

Dump ship's entire track history